sensor_id;sensor_type;location;lat;lon;timestamp;P1;durP1;ratioP1;P2;durP2;ratioP2
18505;SDS011;9382;53.242;10.438;2023-08-06T00:00:20;6.70;;;4.70;;
18505;SDS011;9382;53.242;10.438;2023-08-06T00:02:47;5.90;;;4.40;;
18505;SDS011;9382;53.242;10.438;2023-08-06T00:05:14;5.30;;;4.10;;
18505;SDS011;9382;53.242;10.438;2023-08-06T00:07:43;5.17;;;4.20;;
18505;SDS011;9382;53.242;10.438;2023-08-06T00:10:10;6.47;;;4.63;;
18505;SDS011;9382;53.242;10.438;2023-08-06T00:12:37;5.73;;;4.50;;
18505;SDS011;9382;53.242;10.438;2023-08-06T00:15:04;5.60;;;4.07;;
18505;SDS011;9382;53.242;10.438;2023-08-06T00:17:32;5.67;;;4.53;;
18505;SDS011;9382;53.242;10.438;2023-08-06T00:19:59;6.30;;;4.77;;
18505;SDS011;9382;53.242;10.438;2023-08-06T00:22:29;7.87;;;4.93;;
18505;SDS011;9382;53.242;10.438;2023-08-06T00:24:56;6.53;;;4.50;;
18505;SDS011;9382;53.242;10.438;2023-08-06T00:27:23;6.97;;;4.67;;
18505;SDS011;9382;53.242;10.438;2023-08-06T00:29:50;4.73;;;4.20;;
18505;SDS011;9382;53.242;10.438;2023-08-06T00:32:17;6.93;;;4.87;;
18505;SDS011;9382;53.242;10.438;2023-08-06T00:34:45;6.63;;;4.77;;
18505;SDS011;9382;53.242;10.438;2023-08-06T00:37:14;6.60;;;5.03;;
18505;SDS011;9382;53.242;10.438;2023-08-06T00:39:41;6.90;;;5.10;;
18505;SDS011;9382;53.242;10.438;2023-08-06T00:42:08;6.90;;;5.20;;
18505;SDS011;9382;53.242;10.438;2023-08-06T00:44:34;5.03;;;4.47;;
18505;SDS011;9382;53.242;10.438;2023-08-06T00:47:01;8.67;;;5.40;;
18505;SDS011;9382;53.242;10.438;2023-08-06T00:49:28;6.77;;;4.97;;
18505;SDS011;9382;53.242;10.438;2023-08-06T00:51:57;6.67;;;4.73;;
18505;SDS011;9382;53.242;10.438;2023-08-06T00:54:24;7.67;;;5.10;;
18505;SDS011;9382;53.242;10.438;2023-08-06T00:56:52;7.00;;;4.90;;
18505;SDS011;9382;53.242;10.438;2023-08-06T00:59:19;6.97;;;4.90;;
18505;SDS011;9382;53.242;10.438;2023-08-06T01:01:46;7.27;;;5.00;;
18505;SDS011;9382;53.242;10.438;2023-08-06T01:04:15;6.10;;;4.77;;
18505;SDS011;9382;53.242;10.438;2023-08-06T01:06:43;6.63;;;4.67;;
18505;SDS011;9382;53.242;10.438;2023-08-06T01:09:18;4.90;;;4.30;;
18505;SDS011;9382;53.242;10.438;2023-08-06T01:12:04;4.77;;;4.23;;
18505;SDS011;9382;53.242;10.438;2023-08-06T01:14:52;6.77;;;4.70;;
18505;SDS011;9382;53.242;10.438;2023-08-06T01:17:25;5.30;;;4.63;;
18505;SDS011;9382;53.242;10.438;2023-08-06T01:19:53;7.20;;;5.00;;
18505;SDS011;9382;53.242;10.438;2023-08-06T01:22:21;6.53;;;4.40;;
18505;SDS011;9382;53.242;10.438;2023-08-06T01:24:48;5.20;;;4.47;;
18505;SDS011;9382;53.242;10.438;2023-08-06T01:27:17;6.53;;;4.43;;
18505;SDS011;9382;53.242;10.438;2023-08-06T01:29:52;7.40;;;4.80;;
18505;SDS011;9382;53.242;10.438;2023-08-06T01:32:26;6.10;;;4.50;;
18505;SDS011;9382;53.242;10.438;2023-08-06T01:34:55;6.07;;;4.87;;
18505;SDS011;9382;53.242;10.438;2023-08-06T01:37:24;6.23;;;4.50;;
18505;SDS011;9382;53.242;10.438;2023-08-06T01:39:52;6.97;;;4.57;;
18505;SDS011;9382;53.242;10.438;2023-08-06T01:42:19;7.10;;;4.57;;
18505;SDS011;9382;53.242;10.438;2023-08-06T01:44:45;5.83;;;4.30;;
18505;SDS011;9382;53.242;10.438;2023-08-06T01:47:12;6.33;;;4.43;;
18505;SDS011;9382;53.242;10.438;2023-08-06T01:49:39;5.23;;;4.40;;
18505;SDS011;9382;53.242;10.438;2023-08-06T01:52:06;7.03;;;4.93;;
18505;SDS011;9382;53.242;10.438;2023-08-06T01:54:34;6.87;;;4.63;;
18505;SDS011;9382;53.242;10.438;2023-08-06T01:57:01;4.87;;;4.30;;
18505;SDS011;9382;53.242;10.438;2023-08-06T01:59:28;4.90;;;4.40;;
18505;SDS011;9382;53.242;10.438;2023-08-06T02:01:55;8.20;;;4.83;;
18505;SDS011;9382;53.242;10.438;2023-08-06T02:04:21;5.43;;;4.63;;
18505;SDS011;9382;53.242;10.438;2023-08-06T02:06:48;6.43;;;4.80;;
18505;SDS011;9382;53.242;10.438;2023-08-06T02:09:15;7.87;;;5.40;;
18505;SDS011;9382;53.242;10.438;2023-08-06T02:11:43;7.57;;;5.67;;
18505;SDS011;9382;53.242;10.438;2023-08-06T02:14:10;6.23;;;4.90;;
18505;SDS011;9382;53.242;10.438;2023-08-06T02:16:37;5.93;;;4.67;;
18505;SDS011;9382;53.242;10.438;2023-08-06T02:19:03;6.97;;;4.97;;
18505;SDS011;9382;53.242;10.438;2023-08-06T02:21:30;5.00;;;4.30;;
18505;SDS011;9382;53.242;10.438;2023-08-06T02:23:57;5.97;;;4.90;;
18505;SDS011;9382;53.242;10.438;2023-08-06T02:26:23;8.90;;;4.60;;
18505;SDS011;9382;53.242;10.438;2023-08-06T02:28:52;6.10;;;4.70;;
18505;SDS011;9382;53.242;10.438;2023-08-06T02:31:18;5.27;;;4.33;;
18505;SDS011;9382;53.242;10.438;2023-08-06T02:33:45;6.63;;;4.80;;
18505;SDS011;9382;53.242;10.438;2023-08-06T02:36:12;5.97;;;4.73;;
18505;SDS011;9382;53.242;10.438;2023-08-06T02:38:38;6.43;;;4.73;;
18505;SDS011;9382;53.242;10.438;2023-08-06T02:41:05;6.47;;;4.73;;
18505;SDS011;9382;53.242;10.438;2023-08-06T02:43:33;6.00;;;4.80;;
18505;SDS011;9382;53.242;10.438;2023-08-06T02:46:01;6.80;;;5.00;;
18505;SDS011;9382;53.242;10.438;2023-08-06T02:48:28;6.17;;;4.87;;
18505;SDS011;9382;53.242;10.438;2023-08-06T02:50:56;5.37;;;4.43;;
18505;SDS011;9382;53.242;10.438;2023-08-06T02:53:24;6.00;;;4.60;;
18505;SDS011;9382;53.242;10.438;2023-08-06T02:55:51;7.13;;;4.90;;
18505;SDS011;9382;53.242;10.438;2023-08-06T02:58:18;7.60;;;5.07;;
18505;SDS011;9382;53.242;10.438;2023-08-06T03:00:47;6.60;;;4.90;;
18505;SDS011;9382;53.242;10.438;2023-08-06T03:03:26;7.27;;;5.03;;
18505;SDS011;9382;53.242;10.438;2023-08-06T03:05:53;8.77;;;4.93;;
18505;SDS011;9382;53.242;10.438;2023-08-06T03:08:20;6.10;;;4.83;;
18505;SDS011;9382;53.242;10.438;2023-08-06T03:10:47;10.27;;;5.10;;
18505;SDS011;9382;53.242;10.438;2023-08-06T03:13:14;6.70;;;4.80;;
18505;SDS011;9382;53.242;10.438;2023-08-06T03:15:41;5.47;;;4.63;;
18505;SDS011;9382;53.242;10.438;2023-08-06T03:18:08;5.93;;;4.70;;
18505;SDS011;9382;53.242;10.438;2023-08-06T03:20:36;7.00;;;4.80;;
18505;SDS011;9382;53.242;10.438;2023-08-06T03:23:03;5.37;;;4.20;;
18505;SDS011;9382;53.242;10.438;2023-08-06T03:25:30;5.70;;;4.50;;
18505;SDS011;9382;53.242;10.438;2023-08-06T03:27:56;6.43;;;4.90;;
18505;SDS011;9382;53.242;10.438;2023-08-06T03:30:23;8.07;;;4.80;;
18505;SDS011;9382;53.242;10.438;2023-08-06T03:32:50;6.37;;;4.77;;
18505;SDS011;9382;53.242;10.438;2023-08-06T03:35:17;9.73;;;4.50;;
18505;SDS011;9382;53.242;10.438;2023-08-06T03:37:45;6.50;;;4.90;;
18505;SDS011;9382;53.242;10.438;2023-08-06T03:40:12;7.37;;;4.80;;
18505;SDS011;9382;53.242;10.438;2023-08-06T03:42:38;6.43;;;4.83;;
18505;SDS011;9382;53.242;10.438;2023-08-06T03:45:05;5.70;;;4.43;;
18505;SDS011;9382;53.242;10.438;2023-08-06T03:47:33;7.60;;;5.00;;
18505;SDS011;9382;53.242;10.438;2023-08-06T03:50:00;8.50;;;5.10;;
18505;SDS011;9382;53.242;10.438;2023-08-06T03:52:27;7.43;;;4.70;;
18505;SDS011;9382;53.242;10.438;2023-08-06T03:54:55;7.77;;;5.30;;
18505;SDS011;9382;53.242;10.438;2023-08-06T03:57:22;5.73;;;4.67;;
18505;SDS011;9382;53.242;10.438;2023-08-06T03:59:48;6.90;;;4.90;;
18505;SDS011;9382;53.242;10.438;2023-08-06T04:02:15;6.27;;;4.97;;
18505;SDS011;9382;53.242;10.438;2023-08-06T04:04:42;5.37;;;4.70;;
18505;SDS011;9382;53.242;10.438;2023-08-06T04:07:09;6.33;;;5.07;;
18505;SDS011;9382;53.242;10.438;2023-08-06T04:09:42;6.77;;;5.20;;
18505;SDS011;9382;53.242;10.438;2023-08-06T04:12:20;7.07;;;5.23;;
18505;SDS011;9382;53.242;10.438;2023-08-06T04:14:46;8.13;;;5.60;;
18505;SDS011;9382;53.242;10.438;2023-08-06T04:17:13;9.33;;;5.83;;
18505;SDS011;9382;53.242;10.438;2023-08-06T04:19:40;6.50;;;5.10;;
18505;SDS011;9382;53.242;10.438;2023-08-06T04:22:06;8.67;;;5.13;;
18505;SDS011;9382;53.242;10.438;2023-08-06T04:24:33;8.17;;;5.97;;
18505;SDS011;9382;53.242;10.438;2023-08-06T04:27:00;9.03;;;6.80;;
18505;SDS011;9382;53.242;10.438;2023-08-06T04:29:28;12.43;;;8.30;;
18505;SDS011;9382;53.242;10.438;2023-08-06T04:31:55;11.27;;;7.63;;
18505;SDS011;9382;53.242;10.438;2023-08-06T04:34:21;11.63;;;7.97;;
18505;SDS011;9382;53.242;10.438;2023-08-06T04:36:48;11.33;;;7.93;;
18505;SDS011;9382;53.242;10.438;2023-08-06T04:39:15;11.67;;;7.03;;
18505;SDS011;9382;53.242;10.438;2023-08-06T04:41:42;12.27;;;7.53;;
18505;SDS011;9382;53.242;10.438;2023-08-06T04:44:09;10.80;;;7.53;;
18505;SDS011;9382;53.242;10.438;2023-08-06T04:46:37;14.67;;;8.03;;
18505;SDS011;9382;53.242;10.438;2023-08-06T04:49:04;11.10;;;7.37;;
18505;SDS011;9382;53.242;10.438;2023-08-06T04:51:30;10.60;;;7.17;;
18505;SDS011;9382;53.242;10.438;2023-08-06T04:53:57;10.53;;;6.77;;
18505;SDS011;9382;53.242;10.438;2023-08-06T04:56:24;9.30;;;6.03;;
18505;SDS011;9382;53.242;10.438;2023-08-06T04:58:51;9.93;;;5.70;;
18505;SDS011;9382;53.242;10.438;2023-08-06T05:01:17;6.87;;;5.07;;
18505;SDS011;9382;53.242;10.438;2023-08-06T05:03:46;6.73;;;5.10;;
18505;SDS011;9382;53.242;10.438;2023-08-06T05:06:13;7.27;;;4.97;;
18505;SDS011;9382;53.242;10.438;2023-08-06T05:08:40;7.20;;;5.30;;
18505;SDS011;9382;53.242;10.438;2023-08-06T05:11:06;6.20;;;4.73;;
18505;SDS011;9382;53.242;10.438;2023-08-06T05:13:33;7.57;;;5.13;;
18505;SDS011;9382;53.242;10.438;2023-08-06T05:16:00;7.33;;;4.80;;
18505;SDS011;9382;53.242;10.438;2023-08-06T05:18:26;7.43;;;5.20;;
18505;SDS011;9382;53.242;10.438;2023-08-06T05:20:55;7.90;;;5.73;;
18505;SDS011;9382;53.242;10.438;2023-08-06T05:23:22;8.80;;;5.50;;
18505;SDS011;9382;53.242;10.438;2023-08-06T05:25:48;8.77;;;5.43;;
18505;SDS011;9382;53.242;10.438;2023-08-06T05:28:15;8.53;;;5.90;;
18505;SDS011;9382;53.242;10.438;2023-08-06T05:30:42;8.27;;;5.57;;
18505;SDS011;9382;53.242;10.438;2023-08-06T05:33:09;9.07;;;5.87;;
18505;SDS011;9382;53.242;10.438;2023-08-06T05:35:35;9.50;;;5.90;;
18505;SDS011;9382;53.242;10.438;2023-08-06T05:38:03;9.53;;;5.80;;
18505;SDS011;9382;53.242;10.438;2023-08-06T05:40:30;9.90;;;6.00;;
18505;SDS011;9382;53.242;10.438;2023-08-06T05:42:59;8.63;;;5.40;;
18505;SDS011;9382;53.242;10.438;2023-08-06T05:45:26;9.13;;;5.53;;
18505;SDS011;9382;53.242;10.438;2023-08-06T05:47:52;9.53;;;5.57;;
18505;SDS011;9382;53.242;10.438;2023-08-06T05:50:22;9.27;;;5.10;;
18505;SDS011;9382;53.242;10.438;2023-08-06T05:52:49;6.50;;;4.80;;
18505;SDS011;9382;53.242;10.438;2023-08-06T05:55:18;6.93;;;5.20;;
18505;SDS011;9382;53.242;10.438;2023-08-06T05:57:45;8.10;;;5.30;;
18505;SDS011;9382;53.242;10.438;2023-08-06T06:00:11;7.30;;;5.20;;
18505;SDS011;9382;53.242;10.438;2023-08-06T06:02:38;7.83;;;5.00;;
18505;SDS011;9382;53.242;10.438;2023-08-06T06:05:05;8.93;;;5.60;;
18505;SDS011;9382;53.242;10.438;2023-08-06T06:07:32;6.27;;;4.80;;
18505;SDS011;9382;53.242;10.438;2023-08-06T06:09:59;7.73;;;5.10;;
18505;SDS011;9382;53.242;10.438;2023-08-06T06:12:27;8.40;;;5.43;;
18505;SDS011;9382;53.242;10.438;2023-08-06T06:14:53;7.07;;;5.13;;
18505;SDS011;9382;53.242;10.438;2023-08-06T06:17:21;9.00;;;5.10;;
18505;SDS011;9382;53.242;10.438;2023-08-06T06:19:47;6.80;;;4.97;;
18505;SDS011;9382;53.242;10.438;2023-08-06T06:22:14;8.23;;;5.50;;
18505;SDS011;9382;53.242;10.438;2023-08-06T06:24:41;7.13;;;5.00;;
18505;SDS011;9382;53.242;10.438;2023-08-06T06:27:08;7.03;;;4.80;;
18505;SDS011;9382;53.242;10.438;2023-08-06T06:29:36;5.73;;;4.80;;
18505;SDS011;9382;53.242;10.438;2023-08-06T06:32:02;5.73;;;4.90;;
18505;SDS011;9382;53.242;10.438;2023-08-06T06:34:30;8.47;;;4.93;;
18505;SDS011;9382;53.242;10.438;2023-08-06T06:36:56;6.47;;;5.07;;
18505;SDS011;9382;53.242;10.438;2023-08-06T06:39:23;7.53;;;5.43;;
18505;SDS011;9382;53.242;10.438;2023-08-06T06:41:50;5.93;;;4.60;;
18505;SDS011;9382;53.242;10.438;2023-08-06T06:44:17;7.33;;;5.27;;
18505;SDS011;9382;53.242;10.438;2023-08-06T06:46:46;8.70;;;5.07;;
18505;SDS011;9382;53.242;10.438;2023-08-06T06:49:13;6.73;;;5.00;;
18505;SDS011;9382;53.242;10.438;2023-08-06T06:51:40;7.33;;;4.77;;
18505;SDS011;9382;53.242;10.438;2023-08-06T06:54:06;7.47;;;5.30;;
18505;SDS011;9382;53.242;10.438;2023-08-06T06:56:33;7.80;;;5.60;;
18505;SDS011;9382;53.242;10.438;2023-08-06T06:59:00;6.17;;;4.70;;
18505;SDS011;9382;53.242;10.438;2023-08-06T07:01:26;10.23;;;5.17;;
18505;SDS011;9382;53.242;10.438;2023-08-06T07:03:55;8.97;;;5.33;;
18505;SDS011;9382;53.242;10.438;2023-08-06T07:06:22;6.93;;;5.30;;
18505;SDS011;9382;53.242;10.438;2023-08-06T07:08:49;8.47;;;5.37;;
18505;SDS011;9382;53.242;10.438;2023-08-06T07:11:15;10.07;;;5.40;;
18505;SDS011;9382;53.242;10.438;2023-08-06T07:13:42;7.03;;;5.20;;
18505;SDS011;9382;53.242;10.438;2023-08-06T07:16:09;7.70;;;5.23;;
18505;SDS011;9382;53.242;10.438;2023-08-06T07:18:35;7.60;;;4.90;;
18505;SDS011;9382;53.242;10.438;2023-08-06T07:21:04;7.47;;;5.00;;
18505;SDS011;9382;53.242;10.438;2023-08-06T07:23:30;8.37;;;5.23;;
18505;SDS011;9382;53.242;10.438;2023-08-06T07:25:57;9.47;;;5.47;;
18505;SDS011;9382;53.242;10.438;2023-08-06T07:28:24;8.00;;;4.90;;
18505;SDS011;9382;53.242;10.438;2023-08-06T07:30:51;8.27;;;5.10;;
18505;SDS011;9382;53.242;10.438;2023-08-06T07:33:17;9.73;;;5.43;;
18505;SDS011;9382;53.242;10.438;2023-08-06T07:35:44;7.60;;;5.40;;
18505;SDS011;9382;53.242;10.438;2023-08-06T07:38:12;7.63;;;5.37;;
18505;SDS011;9382;53.242;10.438;2023-08-06T07:40:39;7.80;;;5.07;;
18505;SDS011;9382;53.242;10.438;2023-08-06T07:43:06;8.43;;;5.57;;
18505;SDS011;9382;53.242;10.438;2023-08-06T07:45:33;8.23;;;5.97;;
18505;SDS011;9382;53.242;10.438;2023-08-06T07:48:00;9.07;;;5.77;;
18505;SDS011;9382;53.242;10.438;2023-08-06T07:50:27;7.13;;;5.50;;
18505;SDS011;9382;53.242;10.438;2023-08-06T07:52:54;9.83;;;5.80;;
18505;SDS011;9382;53.242;10.438;2023-08-06T07:55:22;8.27;;;5.50;;
18505;SDS011;9382;53.242;10.438;2023-08-06T07:57:49;9.20;;;5.73;;
18505;SDS011;9382;53.242;10.438;2023-08-06T08:00:16;8.13;;;5.73;;
18505;SDS011;9382;53.242;10.438;2023-08-06T08:02:42;11.23;;;5.67;;
18505;SDS011;9382;53.242;10.438;2023-08-06T08:05:11;8.90;;;6.00;;
18505;SDS011;9382;53.242;10.438;2023-08-06T08:07:37;8.30;;;5.77;;
18505;SDS011;9382;53.242;10.438;2023-08-06T08:10:05;10.00;;;6.23;;
18505;SDS011;9382;53.242;10.438;2023-08-06T08:12:34;11.93;;;6.10;;
18505;SDS011;9382;53.242;10.438;2023-08-06T08:15:00;8.03;;;6.20;;
18505;SDS011;9382;53.242;10.438;2023-08-06T08:17:28;8.33;;;6.03;;
18505;SDS011;9382;53.242;10.438;2023-08-06T08:19:55;9.47;;;6.23;;
18505;SDS011;9382;53.242;10.438;2023-08-06T08:22:21;11.40;;;6.30;;
18505;SDS011;9382;53.242;10.438;2023-08-06T08:24:48;10.03;;;5.80;;
18505;SDS011;9382;53.242;10.438;2023-08-06T08:27:15;8.93;;;6.10;;
18505;SDS011;9382;53.242;10.438;2023-08-06T08:29:43;8.57;;;6.43;;
18505;SDS011;9382;53.242;10.438;2023-08-06T08:32:10;9.07;;;6.13;;
18505;SDS011;9382;53.242;10.438;2023-08-06T08:34:36;8.33;;;5.77;;
18505;SDS011;9382;53.242;10.438;2023-08-06T08:37:03;11.23;;;6.10;;
18505;SDS011;9382;53.242;10.438;2023-08-06T08:39:31;9.50;;;6.43;;
18505;SDS011;9382;53.242;10.438;2023-08-06T08:41:57;7.30;;;5.53;;
18505;SDS011;9382;53.242;10.438;2023-08-06T08:44:24;8.77;;;6.20;;
18505;SDS011;9382;53.242;10.438;2023-08-06T08:46:55;8.87;;;5.83;;
18505;SDS011;9382;53.242;10.438;2023-08-06T08:49:23;10.53;;;6.43;;
18505;SDS011;9382;53.242;10.438;2023-08-06T08:51:52;9.60;;;6.47;;
18505;SDS011;9382;53.242;10.438;2023-08-06T08:54:20;7.83;;;5.70;;
18505;SDS011;9382;53.242;10.438;2023-08-06T08:56:50;9.03;;;6.00;;
18505;SDS011;9382;53.242;10.438;2023-08-06T08:59:16;9.50;;;6.50;;
18505;SDS011;9382;53.242;10.438;2023-08-06T09:01:43;9.17;;;6.13;;
18505;SDS011;9382;53.242;10.438;2023-08-06T09:04:17;8.00;;;5.97;;
18505;SDS011;9382;53.242;10.438;2023-08-06T09:06:45;9.00;;;5.97;;
18505;SDS011;9382;53.242;10.438;2023-08-06T09:09:17;8.27;;;6.60;;
18505;SDS011;9382;53.242;10.438;2023-08-06T09:11:51;8.67;;;5.90;;
18505;SDS011;9382;53.242;10.438;2023-08-06T09:14:18;8.60;;;5.90;;
18505;SDS011;9382;53.242;10.438;2023-08-06T09:16:45;9.63;;;6.47;;
18505;SDS011;9382;53.242;10.438;2023-08-06T09:19:13;9.90;;;6.87;;
18505;SDS011;9382;53.242;10.438;2023-08-06T09:21:43;10.93;;;6.60;;
18505;SDS011;9382;53.242;10.438;2023-08-06T09:24:13;8.10;;;6.43;;
18505;SDS011;9382;53.242;10.438;2023-08-06T09:26:41;11.13;;;6.17;;
18505;SDS011;9382;53.242;10.438;2023-08-06T09:29:10;9.93;;;6.37;;
18505;SDS011;9382;53.242;10.438;2023-08-06T09:31:40;9.43;;;6.30;;
18505;SDS011;9382;53.242;10.438;2023-08-06T09:34:11;11.60;;;6.80;;
18505;SDS011;9382;53.242;10.438;2023-08-06T09:36:39;10.10;;;6.83;;
18505;SDS011;9382;53.242;10.438;2023-08-06T09:39:13;8.53;;;6.20;;
18505;SDS011;9382;53.242;10.438;2023-08-06T09:41:41;9.20;;;6.47;;
18505;SDS011;9382;53.242;10.438;2023-08-06T09:44:13;8.60;;;6.13;;
18505;SDS011;9382;53.242;10.438;2023-08-06T09:46:42;8.20;;;6.33;;
18505;SDS011;9382;53.242;10.438;2023-08-06T09:49:12;11.27;;;6.50;;
18505;SDS011;9382;53.242;10.438;2023-08-06T09:51:39;9.23;;;6.10;;
18505;SDS011;9382;53.242;10.438;2023-08-06T09:54:07;8.73;;;6.00;;
18505;SDS011;9382;53.242;10.438;2023-08-06T09:56:38;9.03;;;5.90;;
18505;SDS011;9382;53.242;10.438;2023-08-06T09:59:06;9.83;;;5.80;;
18505;SDS011;9382;53.242;10.438;2023-08-06T10:01:34;8.53;;;6.43;;
18505;SDS011;9382;53.242;10.438;2023-08-06T10:04:01;8.37;;;6.27;;
18505;SDS011;9382;53.242;10.438;2023-08-06T10:06:31;9.17;;;6.23;;
18505;SDS011;9382;53.242;10.438;2023-08-06T10:09:00;8.23;;;5.67;;
18505;SDS011;9382;53.242;10.438;2023-08-06T10:11:27;8.37;;;6.20;;
18505;SDS011;9382;53.242;10.438;2023-08-06T10:13:57;8.80;;;6.30;;
18505;SDS011;9382;53.242;10.438;2023-08-06T10:16:28;7.93;;;6.13;;
18505;SDS011;9382;53.242;10.438;2023-08-06T10:18:55;9.63;;;6.13;;
18505;SDS011;9382;53.242;10.438;2023-08-06T10:21:23;8.97;;;6.23;;
18505;SDS011;9382;53.242;10.438;2023-08-06T10:23:53;6.40;;;5.73;;
18505;SDS011;9382;53.242;10.438;2023-08-06T10:26:20;7.87;;;5.63;;
18505;SDS011;9382;53.242;10.438;2023-08-06T10:28:51;9.97;;;6.07;;
18505;SDS011;9382;53.242;10.438;2023-08-06T10:31:20;10.17;;;6.13;;
18505;SDS011;9382;53.242;10.438;2023-08-06T10:34:06;9.03;;;6.33;;
18505;SDS011;9382;53.242;10.438;2023-08-06T10:36:34;9.47;;;5.90;;
18505;SDS011;9382;53.242;10.438;2023-08-06T10:39:00;6.00;;;5.40;;
18505;SDS011;9382;53.242;10.438;2023-08-06T10:41:29;7.03;;;5.60;;
18505;SDS011;9382;53.242;10.438;2023-08-06T10:44:04;6.83;;;5.27;;
18505;SDS011;9382;53.242;10.438;2023-08-06T10:46:34;6.20;;;5.07;;
18505;SDS011;9382;53.242;10.438;2023-08-06T10:49:03;7.50;;;4.83;;
18505;SDS011;9382;53.242;10.438;2023-08-06T10:51:32;6.67;;;4.83;;
18505;SDS011;9382;53.242;10.438;2023-08-06T10:53:59;4.67;;;4.23;;
18505;SDS011;9382;53.242;10.438;2023-08-06T10:56:25;5.40;;;4.70;;
18505;SDS011;9382;53.242;10.438;2023-08-06T10:58:53;4.40;;;4.00;;
18505;SDS011;9382;53.242;10.438;2023-08-06T11:01:21;5.10;;;4.07;;
18505;SDS011;9382;53.242;10.438;2023-08-06T11:03:50;5.33;;;4.23;;
18505;SDS011;9382;53.242;10.438;2023-08-06T11:06:18;5.33;;;3.70;;
18505;SDS011;9382;53.242;10.438;2023-08-06T11:08:47;5.63;;;4.23;;
18505;SDS011;9382;53.242;10.438;2023-08-06T11:11:15;5.10;;;3.90;;
18505;SDS011;9382;53.242;10.438;2023-08-06T11:13:43;5.07;;;4.10;;
18505;SDS011;9382;53.242;10.438;2023-08-06T11:16:11;5.47;;;3.60;;
18505;SDS011;9382;53.242;10.438;2023-08-06T11:18:39;4.10;;;3.80;;
18505;SDS011;9382;53.242;10.438;2023-08-06T11:21:08;4.90;;;3.60;;
18505;SDS011;9382;53.242;10.438;2023-08-06T11:23:35;3.43;;;3.13;;
18505;SDS011;9382;53.242;10.438;2023-08-06T11:26:02;5.63;;;3.40;;
18505;SDS011;9382;53.242;10.438;2023-08-06T11:28:29;4.30;;;3.43;;
18505;SDS011;9382;53.242;10.438;2023-08-06T11:30:56;3.50;;;3.20;;
18505;SDS011;9382;53.242;10.438;2023-08-06T11:33:26;3.80;;;3.43;;
18505;SDS011;9382;53.242;10.438;2023-08-06T11:35:54;3.47;;;3.13;;
18505;SDS011;9382;53.242;10.438;2023-08-06T11:38:25;2.83;;;2.57;;
18505;SDS011;9382;53.242;10.438;2023-08-06T11:40:53;4.00;;;2.90;;
18505;SDS011;9382;53.242;10.438;2023-08-06T11:43:20;3.60;;;2.73;;
18505;SDS011;9382;53.242;10.438;2023-08-06T11:45:48;3.43;;;2.60;;
18505;SDS011;9382;53.242;10.438;2023-08-06T11:48:15;2.80;;;2.60;;
18505;SDS011;9382;53.242;10.438;2023-08-06T11:50:43;2.83;;;2.50;;
18505;SDS011;9382;53.242;10.438;2023-08-06T11:53:11;2.53;;;2.33;;
18505;SDS011;9382;53.242;10.438;2023-08-06T11:55:41;2.30;;;2.20;;
18505;SDS011;9382;53.242;10.438;2023-08-06T11:58:09;2.70;;;2.50;;
18505;SDS011;9382;53.242;10.438;2023-08-06T12:00:36;2.70;;;2.50;;
18505;SDS011;9382;53.242;10.438;2023-08-06T12:03:04;3.37;;;2.63;;
18505;SDS011;9382;53.242;10.438;2023-08-06T12:05:31;2.50;;;2.30;;
18505;SDS011;9382;53.242;10.438;2023-08-06T12:07:59;3.30;;;3.00;;
18505;SDS011;9382;53.242;10.438;2023-08-06T12:10:27;3.03;;;2.77;;
18505;SDS011;9382;53.242;10.438;2023-08-06T12:12:56;2.80;;;2.60;;
18505;SDS011;9382;53.242;10.438;2023-08-06T12:15:23;3.00;;;2.80;;
18505;SDS011;9382;53.242;10.438;2023-08-06T12:17:50;2.93;;;2.73;;
18505;SDS011;9382;53.242;10.438;2023-08-06T12:20:17;3.50;;;3.20;;
18505;SDS011;9382;53.242;10.438;2023-08-06T12:22:44;4.07;;;3.40;;
18505;SDS011;9382;53.242;10.438;2023-08-06T12:25:11;3.53;;;2.87;;
18505;SDS011;9382;53.242;10.438;2023-08-06T12:27:39;3.77;;;3.47;;
18505;SDS011;9382;53.242;10.438;2023-08-06T12:30:08;4.10;;;3.70;;
18505;SDS011;9382;53.242;10.438;2023-08-06T12:32:36;5.20;;;4.20;;
18505;SDS011;9382;53.242;10.438;2023-08-06T12:35:03;4.57;;;3.83;;
18505;SDS011;9382;53.242;10.438;2023-08-06T12:37:32;5.00;;;3.90;;
18505;SDS011;9382;53.242;10.438;2023-08-06T12:39:59;4.30;;;3.87;;
18505;SDS011;9382;53.242;10.438;2023-08-06T12:42:26;4.13;;;3.73;;
18505;SDS011;9382;53.242;10.438;2023-08-06T12:44:52;4.07;;;3.77;;
18505;SDS011;9382;53.242;10.438;2023-08-06T12:47:20;5.63;;;4.53;;
18505;SDS011;9382;53.242;10.438;2023-08-06T12:49:47;4.30;;;3.90;;
18505;SDS011;9382;53.242;10.438;2023-08-06T12:52:14;4.33;;;3.93;;
18505;SDS011;9382;53.242;10.438;2023-08-06T12:54:41;9.40;;;4.33;;
18505;SDS011;9382;53.242;10.438;2023-08-06T12:57:10;4.60;;;4.20;;
18505;SDS011;9382;53.242;10.438;2023-08-06T12:59:37;4.67;;;4.00;;
18505;SDS011;9382;53.242;10.438;2023-08-06T13:02:04;4.67;;;4.20;;
18505;SDS011;9382;53.242;10.438;2023-08-06T13:04:33;4.90;;;4.10;;
18505;SDS011;9382;53.242;10.438;2023-08-06T13:07:00;4.33;;;3.93;;
18505;SDS011;9382;53.242;10.438;2023-08-06T13:09:26;4.00;;;3.37;;
18505;SDS011;9382;53.242;10.438;2023-08-06T13:11:53;6.13;;;4.20;;
18505;SDS011;9382;53.242;10.438;2023-08-06T13:14:20;3.90;;;3.57;;
18505;SDS011;9382;53.242;10.438;2023-08-06T13:16:47;4.40;;;3.50;;
18505;SDS011;9382;53.242;10.438;2023-08-06T13:19:13;4.17;;;3.37;;
18505;SDS011;9382;53.242;10.438;2023-08-06T13:22:01;4.40;;;3.73;;
18505;SDS011;9382;53.242;10.438;2023-08-06T13:24:30;5.27;;;3.53;;
18505;SDS011;9382;53.242;10.438;2023-08-06T13:26:57;4.03;;;3.53;;
18505;SDS011;9382;53.242;10.438;2023-08-06T13:29:24;4.03;;;3.67;;
18505;SDS011;9382;53.242;10.438;2023-08-06T13:31:52;3.93;;;3.63;;
18505;SDS011;9382;53.242;10.438;2023-08-06T13:34:18;4.30;;;3.73;;
18505;SDS011;9382;53.242;10.438;2023-08-06T13:36:45;3.73;;;3.23;;
18505;SDS011;9382;53.242;10.438;2023-08-06T13:39:13;4.03;;;3.63;;
18505;SDS011;9382;53.242;10.438;2023-08-06T13:41:42;4.30;;;3.80;;
18505;SDS011;9382;53.242;10.438;2023-08-06T13:44:09;4.97;;;4.00;;
18505;SDS011;9382;53.242;10.438;2023-08-06T13:46:39;4.00;;;3.70;;
18505;SDS011;9382;53.242;10.438;2023-08-06T13:49:05;4.03;;;3.63;;
18505;SDS011;9382;53.242;10.438;2023-08-06T13:51:32;4.33;;;3.90;;
18505;SDS011;9382;53.242;10.438;2023-08-06T13:54:01;6.60;;;4.27;;
18505;SDS011;9382;53.242;10.438;2023-08-06T13:56:29;5.63;;;4.40;;
18505;SDS011;9382;53.242;10.438;2023-08-06T13:58:56;4.43;;;4.03;;
18505;SDS011;9382;53.242;10.438;2023-08-06T14:01:22;4.40;;;4.00;;
18505;SDS011;9382;53.242;10.438;2023-08-06T14:03:49;5.30;;;4.40;;
18505;SDS011;9382;53.242;10.438;2023-08-06T14:06:16;4.33;;;3.83;;
18505;SDS011;9382;53.242;10.438;2023-08-06T14:08:43;4.07;;;3.77;;
18505;SDS011;9382;53.242;10.438;2023-08-06T14:11:10;5.13;;;4.40;;
18505;SDS011;9382;53.242;10.438;2023-08-06T14:13:38;5.73;;;4.97;;
18505;SDS011;9382;53.242;10.438;2023-08-06T14:16:05;5.30;;;4.17;;
18505;SDS011;9382;53.242;10.438;2023-08-06T14:18:33;5.43;;;4.40;;
18505;SDS011;9382;53.242;10.438;2023-08-06T14:21:02;4.87;;;4.20;;
18505;SDS011;9382;53.242;10.438;2023-08-06T14:23:29;5.23;;;4.20;;
18505;SDS011;9382;53.242;10.438;2023-08-06T14:25:56;5.97;;;4.73;;
18505;SDS011;9382;53.242;10.438;2023-08-06T14:28:23;4.90;;;4.20;;
18505;SDS011;9382;53.242;10.438;2023-08-06T14:30:51;4.87;;;4.30;;
18505;SDS011;9382;53.242;10.438;2023-08-06T14:33:18;5.40;;;4.40;;
18505;SDS011;9382;53.242;10.438;2023-08-06T14:35:44;4.97;;;4.47;;
18505;SDS011;9382;53.242;10.438;2023-08-06T14:38:11;4.53;;;4.13;;
18505;SDS011;9382;53.242;10.438;2023-08-06T14:40:38;5.97;;;4.17;;
18505;SDS011;9382;53.242;10.438;2023-08-06T14:43:05;6.37;;;4.00;;
18505;SDS011;9382;53.242;10.438;2023-08-06T14:45:32;4.83;;;3.87;;
18505;SDS011;9382;53.242;10.438;2023-08-06T14:48:00;4.97;;;3.70;;